Angon — CQPQ — position and weather

sailwx.info

Track history (hours):
 
Tides and Currents Weather Stations Pressure Air Temp Water Temp Dewpoint Dewpoint Depression Visibility Wind Speed Wind Dir Waves Ship Positions

Angon

Last reported at 2017-Oct-16 20:53 UTC. Time now 2017-Oct-18 20:32 UTC.
Position N 39°20' W 009°50'.

Length 89 m; draft 4.6 m.

Type: Cargo ship. MMSI: 255802380.

Date/timePositionNaut miles runAvg speedWind from/ knotsBaromVisibWave heightAir tempDewpointWater temp
2017-Oct-16 20:53N 39°20' W 009°50'3 9.2
2017-Oct-16 20:30N 39°17' W 009°50'5 9.0
2017-Oct-16 20:00N 39°12' W 009°50'4 8.8
2017-Oct-16 19:30N 39°08' W 009°49'4 8.8
2017-Oct-16 19:00N 39°03' W 009°50'5 9.2
2017-Oct-16 18:30N 38°59' W 009°50'4 8.8
2017-Oct-16 18:01N 38°54' W 009°50'3 5.3
2017-Oct-16 17:30N 38°52' W 009°50'3 5.5
2017-Oct-16 17:00N 38°49' W 009°50'3 5.4
2017-Oct-16 16:30N 38°46' W 009°50'3 5.3
2017-Oct-16 16:00N 38°44' W 009°50'2 4.9
2017-Oct-16 15:30N 38°41' W 009°50'2 4.9
2017-Oct-16 15:00N 38°39' W 009°49'4 4.4
2017-Oct-16 14:00N 38°34' W 009°49'2 4.6
2017-Oct-16 13:29N 38°32' W 009°48'2 4.6
2017-Oct-16 13:00N 38°30' W 009°48'2 4.8
2017-Oct-16 12:30N 38°28' W 009°47'3 5.0
2017-Oct-16 11:59N 38°25' W 009°46'3 5.2
2017-Oct-16 11:29N 38°23' W 009°45'2 5.3
2017-Oct-16 11:00N 38°20' W 009°44'3 5.5
2017-Oct-16 10:28N 38°17' W 009°43'3 5.6
2017-Oct-16 09:55N 38°14' W 009°43'4 5.5
2017-Oct-16 09:14N 38°11' W 009°41'2 5.7
2017-Oct-16 08:55N 38°09' W 009°41'2 5.7
2017-Oct-16 08:30N 38°07' W 009°40'3 5.6
2017-Oct-16 08:00N 38°04' W 009°39'3 5.5
2017-Oct-16 07:30N 38°01' W 009°39'3 5.6
2017-Oct-16 07:00N 37°58' W 009°38'3 5.5
2017-Oct-16 06:30N 37°56' W 009°37'3 5.7
2017-Oct-16 06:00N 37°53' W 009°37'3 6.9
2017-Oct-16 05:30N 37°50' W 009°36'3 6.7
2017-Oct-16 05:00N 37°46' W 009°35'3 6.8
2017-Oct-16 04:30N 37°43' W 009°34'3 6.9
2017-Oct-16 04:00N 37°40' W 009°33'4 7.1
2017-Oct-16 03:30N 37°36' W 009°32'4 7.1
2017-Oct-16 03:00N 37°33' W 009°31'3 6.9
2017-Oct-16 02:30N 37°29' W 009°31'3 6.7
2017-Oct-16 02:00N 37°26' W 009°30'3 6.5
2017-Oct-16 01:28N 37°23' W 009°28'3 6.3
2017-Oct-16 00:57N 37°19' W 009°27'12 6.3
2017-Oct-15 23:06N 37°08' W 009°24'1 6.6
2017-Oct-15 22:59N 37°07' W 009°24'3 6.6
2017-Oct-15 22:30N 37°04' W 009°23'4 6.5
2017-Oct-15 21:57N 37°01' W 009°23'8 6.2
2017-Oct-15 20:43N 36°53' W 009°21'1 5.1
2017-Oct-15 20:30N 36°52' W 009°21'3 4.9
2017-Oct-15 19:56N 36°50' W 009°18'2 5.3
2017-Oct-15 19:30N 36°49' W 009°16'3 5.8
2017-Oct-15 19:00N 36°47' W 009°13'3 5.7
2017-Oct-15 18:30N 36°45' W 009°10'3 5.6
2017-Oct-15 17:58N 36°44' W 009°07'3 6.3
2017-Oct-15 17:30N 36°43' W 009°04'3 6.5
2017-Oct-15 17:00N 36°41' W 008°60'3 6.3
2017-Oct-15 16:30N 36°38' W 008°58'3 5.9
2017-Oct-15 16:00N 36°36' W 008°57'3 5.9
2017-Oct-15 15:30N 36°33' W 008°56'3 5.6
2017-Oct-15 15:00N 36°30' W 008°55'5 5.4
2017-Oct-15 14:00N 36°25' W 008°53'3 5.5
2017-Oct-15 13:30N 36°22' W 008°52'3 6.1
2017-Oct-15 13:00N 36°19' W 008°51'3 5.8
2017-Oct-15 12:30N 36°17' W 008°50'3 5.7
2017-Oct-15 12:00N 36°14' W 008°48'3 5.6
2017-Oct-15 11:30N 36°12' W 008°47'3 5.5
2017-Oct-15 11:00N 36°09' W 008°45'3 5.6
2017-Oct-15 10:30N 36°07' W 008°43'3 5.9
2017-Oct-15 10:00N 36°04' W 008°41'3 5.9
2017-Oct-15 09:30N 36°01' W 008°40'3 5.8
2017-Oct-15 09:00N 35°59' W 008°39'3 5.9
2017-Oct-15 08:30N 35°56' W 008°38'3 5.7
2017-Oct-15 08:00N 35°53' W 008°37'3 5.4
2017-Oct-15 07:30N 35°51' W 008°35'3 5.5
2017-Oct-15 07:00N 35°48' W 008°34'3 5.4
2017-Oct-15 06:30N 35°46' W 008°34'3 6.0
2017-Oct-15 06:00N 35°43' W 008°33'3 5.3
2017-Oct-15 05:30N 35°40' W 008°32'2 4.9
2017-Oct-15 05:00N 35°38' W 008°30'3 5.1
2017-Oct-15 04:30N 35°36' W 008°29'3 5.2
2017-Oct-15 04:00N 35°33' W 008°27'3 5.2
2017-Oct-15 03:30N 35°31' W 008°26'3 5.6
2017-Oct-15 03:00N 35°29' W 008°24'3 6.0
2017-Oct-15 02:30N 35°26' W 008°23'2 4.7
2017-Oct-15 02:00N 35°24' W 008°22'2 4.7
2017-Oct-15 01:30N 35°22' W 008°21'2 4.9
2017-Oct-15 01:00N 35°19' W 008°19'2 4.8
2017-Oct-15 00:30N 35°17' W 008°18'2 4.8
2017-Oct-15 00:00N 35°15' W 008°17'3 5.0
2017-Oct-14 23:28N 35°12' W 008°16'2 4.9
2017-Oct-14 23:00N 35°10' W 008°15'29 5.1
2017-Oct-14 17:15N 34°43' W 008°03'2 4.9
2017-Oct-14 16:54N 34°41' W 008°02'  
2017-Oct-12 12:50N 33°40' W 007°37'10 1.5
2017-Oct-12 05:59N 33°50' W 007°38'5 9.5
2017-Oct-12 05:26N 33°55' W 007°41'4 9.3
2017-Oct-12 04:58N 33°58' W 007°43'5 9.0
2017-Oct-12 04:28N 34°02' W 007°46'4 9.2
2017-Oct-12 03:59N 34°07' W 007°48'5 9.3
2017-Oct-12 03:29N 34°11' W 007°49'5 9.3
2017-Oct-12 02:57N 34°15' W 007°52'4 9.3
2017-Oct-12 02:30N 34°19' W 007°55'13 9.2
2017-Oct-12 01:05N 34°31' W 008°02'1 9.4
2017-Oct-12 00:56N 34°32' W 008°02'5 9.3
2017-Oct-12 00:26N 34°36' W 008°05'5 9.2
2017-Oct-11 23:52N 34°41' W 008°08'4 9.2
2017-Oct-11 23:29N 34°44' W 008°10'21 9.5
2017-Oct-11 21:17N 35°04' W 008°19'10 9.4
2017-Oct-11 20:10N 35°13' W 008°23'210.1
2017-Oct-11 20:00N 35°15' W 008°24'5 9.3
2017-Oct-11 19:26N 35°19' W 008°27'18 9.5
2017-Oct-11 17:32N 35°36' W 008°36'0 9.2
2017-Oct-11 17:30N 35°36' W 008°36'5 9.3
2017-Oct-11 16:57N 35°41' W 008°39'147 8.7
2017-Oct-11 00:01N 37°56' W 009°52'5 9.7
2017-Oct-10 23:31N 38°00' W 009°54'5 9.9
2017-Oct-10 23:01N 38°05' W 009°56'5 9.7
2017-Oct-10 22:31N 38°10' W 009°57'5 9.7
2017-Oct-10 22:01N 38°15' W 009°59'5 9.5
2017-Oct-10 21:31N 38°19' W 009°60'5 9.5
2017-Oct-10 21:01N 38°24' W 010°01'5 9.6
2017-Oct-10 20:30N 38°29' W 010°02'5 9.5
2017-Oct-10 20:00N 38°33' W 010°03'5 9.6
2017-Oct-10 19:30N 38°38' W 010°05'5 9.4
2017-Oct-10 19:00N 38°43' W 010°05'5 9.0
2017-Oct-10 18:30N 38°47' W 010°06'5 9.2
2017-Oct-10 18:00N 38°52' W 010°06'5 9.8
2017-Oct-10 17:30N 38°57' W 010°05'5 9.3
2017-Oct-10 17:00N 39°01' W 010°05'4 8.9
2017-Oct-10 16:31N 39°06' W 010°05'5 9.1
2017-Oct-10 16:00N 39°10' W 010°05'5 9.5
2017-Oct-10 15:30N 39°15' W 010°05'5 9.5
2017-Oct-10 15:00N 39°20' W 010°05'10 9.7
2017-Oct-10 14:00N 39°30' W 010°05'14 9.7
2017-Oct-10 12:33N 39°44' W 010°05'1 9.8
2017-Oct-10 12:29N 39°44' W 010°05'6 9.6
2017-Oct-10 11:52N 39°50' W 010°05'11 9.2
2017-Oct-10 10:40N 40°01' W 010°05'1 9.2
2017-Oct-10 10:30N 40°03' W 010°05'5 9.4
2017-Oct-10 10:00N 40°08' W 010°05'5 9.4
2017-Oct-10 09:30N 40°12' W 010°05'5 9.8
2017-Oct-10 09:00N 40°17' W 010°05'5 9.9
2017-Oct-10 08:30N 40°22' W 010°05'5 9.6
2017-Oct-10 08:00N 40°27' W 010°06'5 9.6
2017-Oct-10 07:30N 40°32' W 010°06'5 9.4
2017-Oct-10 07:00N 40°37' W 010°06'5 9.8
2017-Oct-10 06:30N 40°41' W 010°05'510.0
2017-Oct-10 06:00N 40°46' W 010°05'5 9.9
2017-Oct-10 05:30N 40°51' W 010°05'510.0
2017-Oct-10 04:57N 40°57' W 010°05'34 9.7
2017-Oct-10 01:28N 41°30' W 010°05'19 9.9
2017-Oct-09 23:34N 41°49' W 010°05'2 9.8
2017-Oct-09 23:23N 41°51' W 010°05'179 7.5
2017-Oct-08 23:34N 43°48' W 006°60'1 9.7
2017-Oct-08 23:30N 43°48' W 006°59'5 9.9
2017-Oct-08 22:59N 43°48' W 006°52'510.3
2017-Oct-08 22:31N 43°47' W 006°45'510.4
2017-Oct-08 22:01N 43°47' W 006°38'510.6
2017-Oct-08 21:30N 43°46' W 006°31'510.5
2017-Oct-08 21:00N 43°45' W 006°24'510.5
2017-Oct-08 20:30N 43°44' W 006°16'510.4
2017-Oct-08 20:01N 43°44' W 006°09'510.3
2017-Oct-08 19:31N 43°43' W 006°02'510.7
2017-Oct-08 19:00N 43°43' W 005°55'610.0
2017-Oct-08 18:27N 43°41' W 005°47'410.0
2017-Oct-08 18:00N 43°39' W 005°43'4 8.6
2017-Oct-08 17:30N 43°35' W 005°40'1 2.6
2017-Oct-08 17:01N 43°34' W 005°42'0 0.0
2017-Oct-08 16:30N 43°34' W 005°42'0 0.0
2017-Oct-08 16:00N 43°34' W 005°42'0 0.0
2017-Oct-08 15:30N 43°34' W 005°42'0 0.0
2017-Oct-08 15:00N 43°34' W 005°42'0 0.0
2017-Oct-08 14:30N 43°34' W 005°42'0 0.0
2017-Oct-08 14:00N 43°34' W 005°42'0 0.0
2017-Oct-08 13:30N 43°34' W 005°42'0 0.0
2017-Oct-08 13:00N 43°34' W 005°42'0 0.0
2017-Oct-08 12:30N 43°34' W 005°42'0 0.0
2017-Oct-08 11:54N 43°34' W 005°42'0 0.0
2017-Oct-08 11:30N 43°34' W 005°42'0 0.0
2017-Oct-08 11:00N 43°34' W 005°42'0 0.0
2017-Oct-08 10:30N 43°34' W 005°42'0 0.0
2017-Oct-08 10:00N 43°34' W 005°42'0 0.0
2017-Oct-08 09:30N 43°34' W 005°42'0 0.0
2017-Oct-08 09:00N 43°34' W 005°42'0 0.0
2017-Oct-08 08:30N 43°34' W 005°42'0 0.0
2017-Oct-08 08:00N 43°34' W 005°42'0 0.0
2017-Oct-08 07:30N 43°34' W 005°42'0 0.0
2017-Oct-08 07:00N 43°34' W 005°42'0 0.0
2017-Oct-08 06:30N 43°34' W 005°42'0 0.0
2017-Oct-08 05:54N 43°34' W 005°42'0 0.0
2017-Oct-08 05:24N 43°34' W 005°42'0 0.0
2017-Oct-08 05:00N 43°34' W 005°42'0 0.0
2017-Oct-08 04:30N 43°34' W 005°42'0 0.0
2017-Oct-08 04:00N 43°34' W 005°42'0 0.0
2017-Oct-08 03:24N 43°34' W 005°42'0 0.0
2017-Oct-08 03:00N 43°34' W 005°42'0 0.0
2017-Oct-08 02:30N 43°34' W 005°42'0 0.0
2017-Oct-08 02:00N 43°34' W 005°42'0 0.0
2017-Oct-08 01:30N 43°34' W 005°42'0 0.0
2017-Oct-08 01:00N 43°34' W 005°42'0 0.0
2017-Oct-08 00:24N 43°34' W 005°42'0 0.0
2017-Oct-08 00:00N 43°34' W 005°42'0 0.0
2017-Oct-07 23:30N 43°34' W 005°42'0 0.0
2017-Oct-07 23:00N 43°34' W 005°42'0 0.0
2017-Oct-07 22:30N 43°34' W 005°42'0 0.0
2017-Oct-07 22:00N 43°34' W 005°42'0 0.0
2017-Oct-07 21:30N 43°34' W 005°42'0 0.0
2017-Oct-07 21:00N 43°34' W 005°42'0 0.0
2017-Oct-07 20:30N 43°34' W 005°42'0 0.0
2017-Oct-07 20:00N 43°34' W 005°42'0 0.0
2017-Oct-07 19:30N 43°34' W 005°42'0 0.0
2017-Oct-07 19:00N 43°34' W 005°42'0 0.0
2017-Oct-07 18:30N 43°34' W 005°42'0 0.0
2017-Oct-07 18:00N 43°34' W 005°42'0 0.0
2017-Oct-07 17:30N 43°34' W 005°42'0 0.0
2017-Oct-07 17:00N 43°34' W 005°42'0 0.0
2017-Oct-07 16:30N 43°34' W 005°42'0 0.0
2017-Oct-07 16:00N 43°34' W 005°42'0 0.0
2017-Oct-07 15:30N 43°34' W 005°42'0 0.0
2017-Oct-07 15:00N 43°34' W 005°42'0 0.0
2017-Oct-07 14:30N 43°34' W 005°42'0 0.0
2017-Oct-07 14:00N 43°34' W 005°42'0 0.1
2017-Oct-07 13:30N 43°34' W 005°42'2 3.2
2017-Oct-07 13:00N 43°35' W 005°40'4 8.2
2017-Oct-07 12:30N 43°38' W 005°44'4 7.6
2017-Oct-07 12:00N 43°41' W 005°48'3 6.9
2017-Oct-07 11:30N 43°43' W 005°52'4 7.0
2017-Oct-07 10:59N 43°43' W 005°57'3 7.1
2017-Oct-07 10:30N 43°44' W 006°02'4 7.3
2017-Oct-07 09:56N 43°44' W 006°07'3 7.1
2017-Oct-07 09:29N 43°45' W 006°12'  
Track history (hours):
 
Tides and Currents Weather Stations Pressure Air Temp Water Temp Dewpoint Dewpoint Depression Visibility Wind Speed Wind Dir Waves Ship Positions

Angon

Last reported at 2017-Oct-16 20:53 UTC. Time now 2017-Oct-18 20:32 UTC.
Position N 39°20' W 009°50'.

Length 89 m; draft 4.6 m.

Type: Cargo ship. MMSI: 255802380.

Date/timePositionNaut miles runAvg speedWind from/ knotsBaromVisibWave heightAir tempDewpointWater temp
2017-Oct-16 20:53N 39°20' W 009°50'3 9.2
2017-Oct-16 20:30N 39°17' W 009°50'5 9.0
2017-Oct-16 20:00N 39°12' W 009°50'4 8.8
2017-Oct-16 19:30N 39°08' W 009°49'4 8.8
2017-Oct-16 19:00N 39°03' W 009°50'5 9.2
2017-Oct-16 18:30N 38°59' W 009°50'4 8.8
2017-Oct-16 18:01N 38°54' W 009°50'3 5.3
2017-Oct-16 17:30N 38°52' W 009°50'3 5.5
2017-Oct-16 17:00N 38°49' W 009°50'3 5.4
2017-Oct-16 16:30N 38°46' W 009°50'3 5.3
2017-Oct-16 16:00N 38°44' W 009°50'2 4.9
2017-Oct-16 15:30N 38°41' W 009°50'2 4.9
2017-Oct-16 15:00N 38°39' W 009°49'4 4.4
2017-Oct-16 14:00N 38°34' W 009°49'2 4.6
2017-Oct-16 13:29N 38°32' W 009°48'2 4.6
2017-Oct-16 13:00N 38°30' W 009°48'2 4.8
2017-Oct-16 12:30N 38°28' W 009°47'3 5.0
2017-Oct-16 11:59N 38°25' W 009°46'3 5.2
2017-Oct-16 11:29N 38°23' W 009°45'2 5.3
2017-Oct-16 11:00N 38°20' W 009°44'3 5.5
2017-Oct-16 10:28N 38°17' W 009°43'3 5.6
2017-Oct-16 09:55N 38°14' W 009°43'4 5.5
2017-Oct-16 09:14N 38°11' W 009°41'2 5.7
2017-Oct-16 08:55N 38°09' W 009°41'2 5.7
2017-Oct-16 08:30N 38°07' W 009°40'3 5.6
2017-Oct-16 08:00N 38°04' W 009°39'3 5.5
2017-Oct-16 07:30N 38°01' W 009°39'3 5.6
2017-Oct-16 07:00N 37°58' W 009°38'3 5.5
2017-Oct-16 06:30N 37°56' W 009°37'3 5.7
2017-Oct-16 06:00N 37°53' W 009°37'3 6.9
2017-Oct-16 05:30N 37°50' W 009°36'3 6.7
2017-Oct-16 05:00N 37°46' W 009°35'3 6.8
2017-Oct-16 04:30N 37°43' W 009°34'3 6.9
2017-Oct-16 04:00N 37°40' W 009°33'4 7.1
2017-Oct-16 03:30N 37°36' W 009°32'4 7.1
2017-Oct-16 03:00N 37°33' W 009°31'3 6.9
2017-Oct-16 02:30N 37°29' W 009°31'3 6.7
2017-Oct-16 02:00N 37°26' W 009°30'3 6.5
2017-Oct-16 01:28N 37°23' W 009°28'3 6.3
2017-Oct-16 00:57N 37°19' W 009°27'12 6.3
2017-Oct-15 23:06N 37°08' W 009°24'1 6.6
2017-Oct-15 22:59N 37°07' W 009°24'3 6.6
2017-Oct-15 22:30N 37°04' W 009°23'4 6.5
2017-Oct-15 21:57N 37°01' W 009°23'8 6.2
2017-Oct-15 20:43N 36°53' W 009°21'1 5.1
2017-Oct-15 20:30N 36°52' W 009°21'3 4.9
2017-Oct-15 19:56N 36°50' W 009°18'2 5.3
2017-Oct-15 19:30N 36°49' W 009°16'3 5.8
2017-Oct-15 19:00N 36°47' W 009°13'3 5.7
2017-Oct-15 18:30N 36°45' W 009°10'3 5.6
2017-Oct-15 17:58N 36°44' W 009°07'3 6.3
2017-Oct-15 17:30N 36°43' W 009°04'3 6.5
2017-Oct-15 17:00N 36°41' W 008°60'3 6.3
2017-Oct-15 16:30N 36°38' W 008°58'3 5.9
2017-Oct-15 16:00N 36°36' W 008°57'3 5.9
2017-Oct-15 15:30N 36°33' W 008°56'3 5.6
2017-Oct-15 15:00N 36°30' W 008°55'5 5.4
2017-Oct-15 14:00N 36°25' W 008°53'3 5.5
2017-Oct-15 13:30N 36°22' W 008°52'3 6.1
2017-Oct-15 13:00N 36°19' W 008°51'3 5.8
2017-Oct-15 12:30N 36°17' W 008°50'3 5.7
2017-Oct-15 12:00N 36°14' W 008°48'3 5.6
2017-Oct-15 11:30N 36°12' W 008°47'3 5.5
2017-Oct-15 11:00N 36°09' W 008°45'3 5.6
2017-Oct-15 10:30N 36°07' W 008°43'3 5.9
2017-Oct-15 10:00N 36°04' W 008°41'3 5.9
2017-Oct-15 09:30N 36°01' W 008°40'3 5.8
2017-Oct-15 09:00N 35°59' W 008°39'3 5.9
2017-Oct-15 08:30N 35°56' W 008°38'3 5.7
2017-Oct-15 08:00N 35°53' W 008°37'3 5.4
2017-Oct-15 07:30N 35°51' W 008°35'3 5.5
2017-Oct-15 07:00N 35°48' W 008°34'3 5.4
2017-Oct-15 06:30N 35°46' W 008°34'3 6.0
2017-Oct-15 06:00N 35°43' W 008°33'3 5.3
2017-Oct-15 05:30N 35°40' W 008°32'2 4.9
2017-Oct-15 05:00N 35°38' W 008°30'3 5.1
2017-Oct-15 04:30N 35°36' W 008°29'3 5.2
2017-Oct-15 04:00N 35°33' W 008°27'3 5.2
2017-Oct-15 03:30N 35°31' W 008°26'3 5.6
2017-Oct-15 03:00N 35°29' W 008°24'3 6.0
2017-Oct-15 02:30N 35°26' W 008°23'2 4.7
2017-Oct-15 02:00N 35°24' W 008°22'2 4.7
2017-Oct-15 01:30N 35°22' W 008°21'2 4.9
2017-Oct-15 01:00N 35°19' W 008°19'2 4.8
2017-Oct-15 00:30N 35°17' W 008°18'2 4.8
2017-Oct-15 00:00N 35°15' W 008°17'3 5.0
2017-Oct-14 23:28N 35°12' W 008°16'2 4.9
2017-Oct-14 23:00N 35°10' W 008°15'29 5.1
2017-Oct-14 17:15N 34°43' W 008°03'2 4.9
2017-Oct-14 16:54N 34°41' W 008°02'  
2017-Oct-12 12:50N 33°40' W 007°37'10 1.5
2017-Oct-12 05:59N 33°50' W 007°38'5 9.5
2017-Oct-12 05:26N 33°55' W 007°41'4 9.3
2017-Oct-12 04:58N 33°58' W 007°43'5 9.0
2017-Oct-12 04:28N 34°02' W 007°46'4 9.2
2017-Oct-12 03:59N 34°07' W 007°48'5 9.3
2017-Oct-12 03:29N 34°11' W 007°49'5 9.3
2017-Oct-12 02:57N 34°15' W 007°52'4 9.3
2017-Oct-12 02:30N 34°19' W 007°55'13 9.2
2017-Oct-12 01:05N 34°31' W 008°02'1 9.4
2017-Oct-12 00:56N 34°32' W 008°02'5 9.3
2017-Oct-12 00:26N 34°36' W 008°05'5 9.2
2017-Oct-11 23:52N 34°41' W 008°08'4 9.2
2017-Oct-11 23:29N 34°44' W 008°10'21 9.5
2017-Oct-11 21:17N 35°04' W 008°19'10 9.4
2017-Oct-11 20:10N 35°13' W 008°23'210.1
2017-Oct-11 20:00N 35°15' W 008°24'5 9.3
2017-Oct-11 19:26N 35°19' W 008°27'18 9.5
2017-Oct-11 17:32N 35°36' W 008°36'0 9.2
2017-Oct-11 17:30N 35°36' W 008°36'5 9.3
2017-Oct-11 16:57N 35°41' W 008°39'147 8.7
2017-Oct-11 00:01N 37°56' W 009°52'5 9.7
2017-Oct-10 23:31N 38°00' W 009°54'5 9.9
2017-Oct-10 23:01N 38°05' W 009°56'5 9.7
2017-Oct-10 22:31N 38°10' W 009°57'5 9.7
2017-Oct-10 22:01N 38°15' W 009°59'5 9.5
2017-Oct-10 21:31N 38°19' W 009°60'5 9.5
2017-Oct-10 21:01N 38°24' W 010°01'5 9.6
2017-Oct-10 20:30N 38°29' W 010°02'5 9.5
2017-Oct-10 20:00N 38°33' W 010°03'5 9.6
2017-Oct-10 19:30N 38°38' W 010°05'5 9.4
2017-Oct-10 19:00N 38°43' W 010°05'5 9.0
2017-Oct-10 18:30N 38°47' W 010°06'5 9.2
2017-Oct-10 18:00N 38°52' W 010°06'5 9.8
2017-Oct-10 17:30N 38°57' W 010°05'5 9.3
2017-Oct-10 17:00N 39°01' W 010°05'4 8.9
2017-Oct-10 16:31N 39°06' W 010°05'5 9.1
2017-Oct-10 16:00N 39°10' W 010°05'5 9.5
2017-Oct-10 15:30N 39°15' W 010°05'5 9.5
2017-Oct-10 15:00N 39°20' W 010°05'10 9.7
2017-Oct-10 14:00N 39°30' W 010°05'14 9.7
2017-Oct-10 12:33N 39°44' W 010°05'1 9.8
2017-Oct-10 12:29N 39°44' W 010°05'6 9.6
2017-Oct-10 11:52N 39°50' W 010°05'11 9.2
2017-Oct-10 10:40N 40°01' W 010°05'1 9.2
2017-Oct-10 10:30N 40°03' W 010°05'5 9.4
2017-Oct-10 10:00N 40°08' W 010°05'5 9.4
2017-Oct-10 09:30N 40°12' W 010°05'5 9.8
2017-Oct-10 09:00N 40°17' W 010°05'5 9.9
2017-Oct-10 08:30N 40°22' W 010°05'5 9.6
2017-Oct-10 08:00N 40°27' W 010°06'5 9.6
2017-Oct-10 07:30N 40°32' W 010°06'5 9.4
2017-Oct-10 07:00N 40°37' W 010°06'5 9.8
2017-Oct-10 06:30N 40°41' W 010°05'510.0
2017-Oct-10 06:00N 40°46' W 010°05'5 9.9
2017-Oct-10 05:30N 40°51' W 010°05'510.0
2017-Oct-10 04:57N 40°57' W 010°05'34 9.7
2017-Oct-10 01:28N 41°30' W 010°05'19 9.9
2017-Oct-09 23:34N 41°49' W 010°05'2 9.8
2017-Oct-09 23:23N 41°51' W 010°05'179 7.5
2017-Oct-08 23:34N 43°48' W 006°60'1 9.7
2017-Oct-08 23:30N 43°48' W 006°59'5 9.9
2017-Oct-08 22:59N 43°48' W 006°52'510.3
2017-Oct-08 22:31N 43°47' W 006°45'510.4
2017-Oct-08 22:01N 43°47' W 006°38'510.6
2017-Oct-08 21:30N 43°46' W 006°31'510.5
2017-Oct-08 21:00N 43°45' W 006°24'510.5
2017-Oct-08 20:30N 43°44' W 006°16'510.4
2017-Oct-08 20:01N 43°44' W 006°09'510.3
2017-Oct-08 19:31N 43°43' W 006°02'510.7
2017-Oct-08 19:00N 43°43' W 005°55'610.0
2017-Oct-08 18:27N 43°41' W 005°47'410.0
2017-Oct-08 18:00N 43°39' W 005°43'4 8.6
2017-Oct-08 17:30N 43°35' W 005°40'1 2.6
2017-Oct-08 17:01N 43°34' W 005°42'0 0.0
2017-Oct-08 16:30N 43°34' W 005°42'0 0.0
2017-Oct-08 16:00N 43°34' W 005°42'0 0.0
2017-Oct-08 15:30N 43°34' W 005°42'0 0.0
2017-Oct-08 15:00N 43°34' W 005°42'0 0.0
2017-Oct-08 14:30N 43°34' W 005°42'0 0.0
2017-Oct-08 14:00N 43°34' W 005°42'0 0.0
2017-Oct-08 13:30N 43°34' W 005°42'0 0.0
2017-Oct-08 13:00N 43°34' W 005°42'0 0.0
2017-Oct-08 12:30N 43°34' W 005°42'0 0.0
2017-Oct-08 11:54N 43°34' W 005°42'0 0.0
2017-Oct-08 11:30N 43°34' W 005°42'0 0.0
2017-Oct-08 11:00N 43°34' W 005°42'0 0.0
2017-Oct-08 10:30N 43°34' W 005°42'0 0.0
2017-Oct-08 10:00N 43°34' W 005°42'0 0.0
2017-Oct-08 09:30N 43°34' W 005°42'0 0.0
2017-Oct-08 09:00N 43°34' W 005°42'0 0.0
2017-Oct-08 08:30N 43°34' W 005°42'0 0.0
2017-Oct-08 08:00N 43°34' W 005°42'0 0.0
2017-Oct-08 07:30N 43°34' W 005°42'0 0.0
2017-Oct-08 07:00N 43°34' W 005°42'0 0.0
2017-Oct-08 06:30N 43°34' W 005°42'0 0.0
2017-Oct-08 05:54N 43°34' W 005°42'0 0.0
2017-Oct-08 05:24N 43°34' W 005°42'0 0.0
2017-Oct-08 05:00N 43°34' W 005°42'0 0.0
2017-Oct-08 04:30N 43°34' W 005°42'0 0.0
2017-Oct-08 04:00N 43°34' W 005°42'0 0.0
2017-Oct-08 03:24N 43°34' W 005°42'0 0.0
2017-Oct-08 03:00N 43°34' W 005°42'0 0.0
2017-Oct-08 02:30N 43°34' W 005°42'0 0.0
2017-Oct-08 02:00N 43°34' W 005°42'0 0.0
2017-Oct-08 01:30N 43°34' W 005°42'0 0.0
2017-Oct-08 01:00N 43°34' W 005°42'0 0.0
2017-Oct-08 00:24N 43°34' W 005°42'0 0.0
2017-Oct-08 00:00N 43°34' W 005°42'0 0.0
2017-Oct-07 23:30N 43°34' W 005°42'0 0.0
2017-Oct-07 23:00N 43°34' W 005°42'0 0.0
2017-Oct-07 22:30N 43°34' W 005°42'0 0.0
2017-Oct-07 22:00N 43°34' W 005°42'0 0.0
2017-Oct-07 21:30N 43°34' W 005°42'0 0.0
2017-Oct-07 21:00N 43°34' W 005°42'0 0.0
2017-Oct-07 20:30N 43°34' W 005°42'0 0.0
2017-Oct-07 20:00N 43°34' W 005°42'0 0.0
2017-Oct-07 19:30N 43°34' W 005°42'0 0.0
2017-Oct-07 19:00N 43°34' W 005°42'0 0.0
2017-Oct-07 18:30N 43°34' W 005°42'0 0.0
2017-Oct-07 18:00N 43°34' W 005°42'0 0.0
2017-Oct-07 17:30N 43°34' W 005°42'0 0.0
2017-Oct-07 17:00N 43°34' W 005°42'0 0.0
2017-Oct-07 16:30N 43°34' W 005°42'0 0.0
2017-Oct-07 16:00N 43°34' W 005°42'0 0.0
2017-Oct-07 15:30N 43°34' W 005°42'0 0.0
2017-Oct-07 15:00N 43°34' W 005°42'0 0.0
2017-Oct-07 14:30N 43°34' W 005°42'0 0.0
2017-Oct-07 14:00N 43°34' W 005°42'0 0.1
2017-Oct-07 13:30N 43°34' W 005°42'2 3.2
2017-Oct-07 13:00N 43°35' W 005°40'4 8.2
2017-Oct-07 12:30N 43°38' W 005°44'4 7.6
2017-Oct-07 12:00N 43°41' W 005°48'3 6.9
2017-Oct-07 11:30N 43°43' W 005°52'4 7.0
2017-Oct-07 10:59N 43°43' W 005°57'3 7.1
2017-Oct-07 10:30N 43°44' W 006°02'4 7.3
2017-Oct-07 09:56N 43°44' W 006°07'3 7.1
2017-Oct-07 09:29N 43°45' W 006°12'  

Dump ship's entire track history